Time;durP1;ratioP1;P1;durP2;ratioP2;P2;SDS_P1;SDS_P2;PMS_P1;PMS_P2;Temp;Humidity;BMP_temperature;BMP_pressure;BME280_temperature;BME280_humidity;BME280_pressure;Samples;Min_cycle;Max_cycle;Signal;HPM_P1;HPM_P2
2023/12/13 00:00:58;;;;;;;5.77;1.20;;;9.00;99.90;;;8.43;100.00;99553.47;4145350;28;20492;-75
2023/12/13 00:02:59;;;;;;;3.78;1.13;;;9.10;99.90;;;8.46;100.00;99548.69;4150473;28;20026;-74
2023/12/13 00:05:00;;;;;;;8.57;1.30;;;9.10;99.90;;;8.50;100.00;99549.16;4134154;28;20469;-76
2023/12/13 00:07:00;;;;;;;7.10;1.63;;;9.10;99.90;;;8.51;100.00;99543.72;4149040;28;20033;-76
2023/12/13 00:09:02;;;;;;;4.32;1.38;;;9.10;99.90;;;8.54;100.00;99538.13;4146832;28;20025;-77
2023/12/13 00:11:03;;;;;;;9.02;1.40;;;9.20;99.90;;;8.59;100.00;99527.09;4154093;28;20034;-76
2023/12/13 00:13:04;;;;;;;5.13;1.70;;;9.20;99.90;;;8.60;100.00;99518.25;4155360;28;20030;-77
2023/12/13 00:15:07;;;;;;;3.83;1.20;;;9.20;99.90;;;8.60;100.00;99529.53;4155137;28;20113;-77
2023/12/13 00:17:10;;;;;;;10.82;3.33;;;9.20;99.90;;;8.56;100.00;99537.97;4154996;28;20104;-76
2023/12/13 00:19:11;;;;;;;12.80;5.00;;;9.20;99.90;;;8.53;100.00;99531.25;4155271;28;20064;-77
2023/12/13 00:21:13;;;;;;;17.05;4.90;;;9.10;99.90;;;8.48;100.00;99530.97;4154061;28;20437;-77
2023/12/13 00:23:14;;;;;;;9.10;3.72;;;9.10;99.90;;;8.53;100.00;99538.31;4154225;28;20125;-77
2023/12/13 00:25:14;;;;;;;12.00;6.20;;;9.10;99.90;;;8.52;100.00;99545.38;4155185;28;20026;-77
2023/12/13 00:27:15;;;;;;;11.07;6.30;;;9.10;99.90;;;8.52;100.00;99532.22;4154975;28;20022;-76
2023/12/13 00:29:16;;;;;;;14.75;5.30;;;9.10;99.90;;;8.51;100.00;99529.78;4155113;28;20026;-77
2023/12/13 00:31:17;;;;;;;10.18;4.70;;;9.10;99.90;;;8.49;100.00;99532.56;4154808;28;20022;-77
2023/12/13 00:33:18;;;;;;;15.43;4.97;;;9.10;99.90;;;8.44;100.00;99527.03;4154924;28;20030;-77
2023/12/13 00:35:19;;;;;;;14.73;4.18;;;9.10;99.90;;;8.40;100.00;99530.16;4154445;28;20033;-77
2023/12/13 00:37:20;;;;;;;11.88;3.28;;;9.00;99.90;;;8.32;100.00;99526.59;4153807;28;20105;-77
2023/12/13 00:40:14;;;;;;;24.15;8.23;;;8.90;99.90;;;8.16;100.00;99529.25;4155095;28;20085;-77
2023/12/13 00:42:15;;;;;;;13.07;3.60;;;8.80;99.90;;;8.04;100.00;99529.78;4154899;28;20057;-77
2023/12/13 00:44:16;;;;;;;10.43;3.15;;;8.70;99.90;;;7.94;100.00;99526.53;4153735;28;20026;-77
2023/12/13 00:46:19;;;;;;;7.60;2.60;;;8.60;99.90;;;7.87;100.00;99522.94;4153562;28;20022;-77
2023/12/13 00:48:58;;;;;;;9.02;2.78;;;8.50;99.90;;;7.79;100.00;99531.66;4154689;28;20018;-77
2023/12/13 00:50:59;;;;;;;8.65;2.22;;;8.50;99.90;;;7.75;100.00;99531.19;4154756;28;20034;-76
2023/12/13 00:52:59;;;;;;;7.57;2.10;;;8.40;99.90;;;7.74;100.00;99534.78;4154533;28;20034;-76
2023/12/13 00:55:01;;;;;;;12.05;2.22;;;8.40;99.90;;;7.67;100.00;99538.25;4154569;28;20029;-77
2023/12/13 00:57:02;;;;;;;6.43;2.17;;;8.40;99.90;;;7.64;100.00;99531.53;4153557;28;20034;-77
2023/12/13 00:59:03;;;;;;;8.75;1.63;;;8.40;99.90;;;7.62;100.00;99530.84;4153629;28;20095;-76
2023/12/13 01:01:05;;;;;;;9.05;1.33;;;8.30;99.90;;;7.63;100.00;99529.88;4153264;28;20033;-76
2023/12/13 01:03:06;;;;;;;15.68;2.45;;;8.30;99.90;;;7.62;100.00;99525.59;4154463;28;20029;-76
2023/12/13 01:05:07;;;;;;;12.48;2.50;;;8.30;99.90;;;7.63;100.00;99524.63;4154551;28;20482;-76
2023/12/13 01:07:08;;;;;;;7.57;1.48;;;8.30;99.90;;;7.66;100.00;99528.72;4154593;28;20022;-76
2023/12/13 01:09:09;;;;;;;8.77;1.30;;;8.30;99.90;;;7.73;100.00;99522.66;4149442;28;20033;-77
2023/12/13 01:11:10;;;;;;;11.15;1.30;;;8.40;99.90;;;7.73;100.00;99514.78;4154326;28;20026;-76
2023/12/13 01:13:11;;;;;;;8.10;2.33;;;8.40;99.90;;;7.69;100.00;99521.34;4153274;28;20058;-76
2023/12/13 01:15:12;;;;;;;14.10;1.90;;;8.40;99.90;;;7.72;100.00;99512.31;4152996;28;20216;-76
2023/12/13 01:17:13;;;;;;;16.83;3.22;;;8.40;99.90;;;7.79;100.00;99519.34;4152997;28;20054;-76
2023/12/13 01:19:14;;;;;;;17.05;1.95;;;8.40;99.90;;;7.85;100.00;99517.03;4154177;28;20397;-76
2023/12/13 01:21:16;;;;;;;9.35;1.48;;;8.50;99.90;;;7.91;100.00;99521.63;4152003;28;20049;-76
2023/12/13 01:23:17;;;;;;;16.83;2.05;;;8.50;99.90;;;7.91;100.00;99519.00;4153116;28;20018;-76
2023/12/13 01:25:17;;;;;;;14.45;2.83;;;8.50;99.90;;;7.94;100.00;99521.28;4154190;28;20026;-76
2023/12/13 01:27:18;;;;;;;8.55;1.92;;;8.60;99.90;;;8.05;100.00;99534.03;4152873;28;20398;-76
2023/12/13 01:29:19;;;;;;;16.98;2.20;;;8.60;99.90;;;8.14;100.00;99525.16;4169242;28;20034;-76
2023/12/13 01:31:20;;;;;;;7.05;1.77;;;8.70;99.90;;;8.23;100.00;99532.84;4143572;28;20076;-77
2023/12/13 01:33:21;;;;;;;13.02;1.95;;;8.80;99.90;;;8.30;100.00;99538.25;4154059;28;20040;-77
2023/12/13 01:35:22;;;;;;;8.18;2.28;;;8.90;99.90;;;8.36;100.00;99528.88;4153851;28;20033;-76
2023/12/13 01:37:22;;;;;;;11.30;2.10;;;8.90;99.90;;;8.33;100.00;99541.34;4154174;28;20033;-76
2023/12/13 01:39:23;;;;;;;10.45;1.85;;;8.90;99.90;;;8.35;100.00;99546.44;4152816;28;20037;-76
2023/12/13 01:41:24;;;;;;;13.35;2.35;;;8.90;99.90;;;8.52;100.00;99536.66;4153912;28;20065;-76
2023/12/13 01:43:25;;;;;;;20.50;2.50;;;9.10;99.90;;;8.61;100.00;99544.34;4153862;28;20101;-76
2023/12/13 01:45:26;;;;;;;10.23;2.00;;;9.20;99.90;;;8.69;100.00;99549.53;4152522;28;20026;-76
2023/12/13 01:47:27;;;;;;;11.95;2.22;;;9.20;99.90;;;8.72;100.00;99551.81;4153945;28;20022;-76
2023/12/13 01:49:28;;;;;;;13.25;2.22;;;9.30;99.90;;;8.79;100.00;99555.41;4153883;28;20378;-76
2023/12/13 01:51:30;;;;;;;13.25;1.63;;;9.40;99.90;;;8.77;100.00;99546.88;4151440;28;20082;-76
2023/12/13 01:53:32;;;;;;;13.90;1.95;;;9.40;99.90;;;8.83;100.00;99553.25;4136509;28;20089;-76
2023/12/13 01:55:33;;;;;;;9.10;1.33;;;9.40;99.90;;;8.84;100.00;99563.59;4142582;28;20057;-76
2023/12/13 01:57:36;;;;;;;12.13;2.88;;;9.50;99.90;;;8.86;100.00;99553.75;4153792;28;20030;-76
2023/12/13 01:59:37;;;;;;;15.75;2.08;;;9.50;99.90;;;8.88;100.00;99559.63;4152307;28;20030;-76
2023/12/13 02:01:39;;;;;;;9.00;1.70;;;9.50;99.90;;;8.95;100.00;99570.28;4152285;28;20559;-76
2023/12/13 02:03:40;;;;;;;13.75;1.98;;;9.60;99.90;;;8.88;100.00;99562.25;4152613;28;20459;-76
2023/12/13 02:05:43;;;;;;;9.90;1.50;;;9.50;99.90;;;8.86;100.00;99571.31;4152311;28;20037;-76
2023/12/13 02:07:44;;;;;;;8.82;1.88;;;9.50;99.90;;;8.80;100.00;99569.38;4153462;28;20103;-76
2023/12/13 02:09:45;;;;;;;5.72;1.45;;;9.50;99.90;;;8.80;100.00;99583.34;4152438;28;20025;-76
2023/12/13 02:11:46;;;;;;;6.63;1.20;;;9.50;99.90;;;8.82;100.00;99585.78;4152478;28;20030;-76
2023/12/13 02:13:48;;;;;;;10.70;1.48;;;9.50;99.90;;;8.78;100.00;99582.69;4152318;28;20056;-76
2023/12/13 02:15:49;;;;;;;11.40;1.73;;;9.40;99.90;;;8.69;100.00;99581.09;4151928;28;20034;-76
2023/12/13 02:17:53;;;;;;;9.57;1.15;;;9.40;99.90;;;8.60;100.00;99587.38;4152346;28;20037;-76
2023/12/13 02:19:54;;;;;;;;;;;9.30;99.90;;;8.41;100.00;99594.88;4152755;28;20102;-76
2023/12/13 02:21:55;;;;;;;5.05;1.70;;;9.20;99.90;;;8.41;100.00;99590.44;4153280;28;19920;-76
2023/12/13 02:24:03;;;;;;;8.23;0.90;;;9.10;99.90;;;8.26;100.00;99595.53;4153311;28;20018;-76
2023/12/13 02:26:07;;;;;;;6.90;1.38;;;9.00;99.90;;;8.34;100.00;99603.41;4152154;28;20437;-76
2023/12/13 02:28:08;;;;;;;;;;;9.00;99.90;;;8.26;100.00;99599.97;4152628;28;20022;-76
2023/12/13 02:30:10;;;;;;;7.05;1.10;;;8.90;99.90;;;8.11;100.00;99596.41;4151520;28;20364;-76
2023/12/13 02:32:11;;;;;;;9.48;1.83;;;8.80;99.90;;;8.07;100.00;99584.59;4151427;28;20030;-76
2023/12/13 02:34:11;;;;;;;10.73;1.45;;;8.80;99.90;;;8.01;100.00;99588.69;4151418;28;20025;-75
2023/12/13 02:36:12;;;;;;;7.20;1.55;;;8.70;99.90;;;7.97;100.00;99600.53;4151954;28;20041;-76
2023/12/13 02:38:14;;;;;;;11.57;1.73;;;8.70;99.90;;;7.93;100.00;99586.09;4151801;28;20029;-76
2023/12/13 02:40:17;;;;;;;10.45;1.30;;;8.60;99.90;;;7.89;100.00;99591.84;4151790;28;20084;-76
2023/12/13 02:42:18;;;;;;;7.70;1.48;;;8.60;99.90;;;7.84;100.00;99591.53;4143922;28;20116;-76
2023/12/13 02:44:19;;;;;;;11.45;1.55;;;8.50;99.90;;;7.82;100.00;99585.63;4153059;28;20030;-76
2023/12/13 02:46:19;;;;;;;10.20;1.80;;;8.50;99.90;;;7.86;100.00;99585.13;4151705;28;20040;-76
2023/12/13 02:48:20;;;;;;;10.85;1.75;;;8.50;99.90;;;7.78;100.00;99579.91;4151531;28;20034;-76
2023/12/13 02:50:21;;;;;;;8.55;1.60;;;8.50;99.90;;;7.74;100.00;99574.16;4152067;28;20110;-76
2023/12/13 02:52:22;;;;;;;6.03;1.45;;;8.40;99.90;;;7.72;100.00;99578.75;4157816;28;20128;-76
2023/12/13 02:54:23;;;;;;;8.98;1.20;;;8.40;99.90;;;7.67;100.00;99578.44;4151551;28;20041;-76
2023/12/13 02:56:24;;;;;;;10.32;1.30;;;8.30;99.90;;;7.64;100.00;99583.19;4152805;28;20030;-76
2023/12/13 02:58:25;;;;;;;8.32;1.70;;;8.30;99.90;;;7.65;100.00;99587.44;4151544;28;20030;-76
2023/12/13 03:00:25;;;;;;;8.07;1.67;;;8.30;99.90;;;7.60;100.00;99579.25;4152695;28;20021;-76
2023/12/13 03:02:26;;;;;;;11.20;1.55;;;8.30;99.90;;;7.56;100.00;99586.63;4148158;28;20022;-76
2023/12/13 03:04:27;;;;;;;6.15;1.65;;;8.30;99.90;;;7.51;100.00;99577.63;4167770;28;20393;-76
2023/12/13 03:06:28;;;;;;;13.77;1.58;;;8.20;99.90;;;7.46;100.00;99587.78;4152225;28;20030;-76
2023/12/13 03:08:29;;;;;;;10.63;2.55;;;8.10;99.90;;;7.42;100.00;99586.47;4153107;28;20014;-76
2023/12/13 03:10:30;;;;;;;8.27;1.55;;;8.00;99.90;;;7.40;100.00;99593.69;4152837;28;20030;-76
2023/12/13 03:12:30;;;;;;;14.45;1.88;;;8.10;99.90;;;7.35;100.00;99586.31;4150470;28;20026;-76
2023/12/13 03:14:31;;;;;;;8.20;1.70;;;8.00;99.90;;;7.33;100.00;99596.16;4152234;28;20030;-76
2023/12/13 03:16:32;;;;;;;9.82;1.55;;;8.00;99.90;;;7.29;100.00;99592.19;4152485;28;20056;-76
2023/12/13 03:18:33;;;;;;;13.57;2.03;;;8.00;99.90;;;7.29;100.00;99594.81;4151372;28;20041;-76
2023/12/13 03:20:34;;;;;;;9.82;2.20;;;7.90;99.90;;;7.33;100.00;99597.94;4152503;28;20018;-76
2023/12/13 03:22:34;;;;;;;8.55;2.15;;;7.90;99.90;;;7.30;100.00;99590.41;4137986;28;20033;-76
2023/12/13 03:24:35;;;;;;;9.38;3.13;;;7.90;99.90;;;7.30;100.00;99590.41;4152067;28;20022;-76
2023/12/13 03:26:36;;;;;;;17.65;4.07;;;7.90;99.90;;;7.30;100.00;99585.97;4152356;28;20112;-76
2023/12/13 03:28:37;;;;;;;9.52;1.77;;;8.00;99.90;;;7.26;100.00;99589.91;4134906;28;20026;-76
2023/12/13 03:30:38;;;;;;;12.68;2.15;;;7.90;99.90;;;7.25;100.00;99585.66;4152036;28;20029;-76
2023/12/13 03:32:39;;;;;;;5.78;1.65;;;7.90;99.90;;;7.21;100.00;99579.91;4150905;28;20380;-76
2023/12/13 03:34:40;;;;;;;13.95;1.52;;;7.90;99.90;;;7.16;100.00;99576.97;4151404;28;20509;-76
2023/12/13 03:36:41;;;;;;;12.35;1.77;;;7.90;99.90;;;7.19;100.00;99583.69;4134895;28;20026;-76
2023/12/13 03:38:45;;;;;;;11.95;2.17;;;7.90;99.90;;;7.22;100.00;99578.13;4151102;28;20077;-76
2023/12/13 03:40:46;;;;;;;10.02;2.05;;;7.90;99.90;;;7.21;100.00;99586.97;4151211;28;20057;-76
2023/12/13 03:42:46;;;;;;;12.50;1.25;;;7.90;99.90;;;7.20;100.00;99580.06;4152247;28;20030;-76
2023/12/13 03:44:47;;;;;;;7.97;1.50;;;7.90;99.90;;;7.19;100.00;99573.19;4151666;28;20014;-76
2023/12/13 03:46:48;;;;;;;10.20;2.15;;;7.90;99.90;;;7.19;100.00;99578.44;4151002;28;20088;-76
2023/12/13 03:48:49;;;;;;;7.85;1.40;;;7.90;99.90;;;7.17;100.00;99565.47;4152367;28;20366;-76
2023/12/13 03:50:50;;;;;;;11.82;2.47;;;7.90;99.90;;;7.19;100.00;99568.78;4150828;28;20029;-76
2023/12/13 03:52:50;;;;;;;8.98;1.52;;;7.90;99.90;;;7.22;100.00;99567.63;4147103;28;20452;-76
2023/12/13 03:54:51;;;;;;;5.50;1.73;;;7.90;99.90;;;7.23;100.00;99570.06;4150968;28;20456;-76
2023/12/13 03:56:52;;;;;;;8.38;1.77;;;7.90;99.90;;;7.29;100.00;99573.84;4152298;28;20109;-76
2023/12/13 03:58:53;;;;;;;7.20;1.42;;;7.90;99.90;;;7.33;100.00;99577.78;4151057;28;20041;-76
2023/12/13 04:00:54;;;;;;;7.15;1.27;;;8.00;99.90;;;7.32;100.00;99578.75;4151185;28;20492;-76
2023/12/13 04:02:54;;;;;;;5.90;1.50;;;8.00;99.90;;;7.37;100.00;99581.72;4150836;28;20473;-76
2023/12/13 04:04:55;;;;;;;11.35;2.83;;;8.00;99.90;;;7.40;100.00;99581.41;4152387;28;20026;-76
2023/12/13 04:06:56;;;;;;;11.27;1.80;;;8.00;99.90;;;7.46;100.00;99583.38;4152203;28;20378;-76
2023/12/13 04:08:57;;;;;;;9.40;2.53;;;8.10;99.90;;;7.53;100.00;99583.50;4152111;28;20048;-76
2023/12/13 04:10:58;;;;;;;8.25;2.70;;;8.20;99.90;;;7.58;100.00;99587.31;4150993;28;20378;-76
2023/12/13 04:12:59;;;;;;;11.05;2.35;;;8.20;99.90;;;7.60;100.00;99582.69;4150774;28;20520;-76
2023/12/13 04:15:00;;;;;;;10.55;2.10;;;8.30;99.90;;;7.63;100.00;99576.28;4150746;28;20041;-76
2023/12/13 04:17:01;;;;;;;15.13;2.60;;;8.20;99.90;;;7.68;100.00;99582.69;4150732;28;20050;-76
2023/12/13 04:19:01;;;;;;;11.77;2.38;;;8.30;99.90;;;7.71;100.00;99586.78;4151664;28;20030;-76
2023/12/13 04:21:02;;;;;;;15.73;2.00;;;8.30;99.90;;;7.67;100.00;99575.81;4150462;28;20029;-76
2023/12/13 04:23:04;;;;;;;13.93;2.67;;;8.30;99.90;;;7.65;100.00;99583.03;4140482;28;20034;-76
2023/12/13 04:25:05;;;;;;;11.10;2.17;;;8.30;99.90;;;7.58;100.00;99584.69;4151667;28;20026;-76
2023/12/13 04:27:06;;;;;;;8.18;2.30;;;8.20;99.90;;;7.52;100.00;99579.28;4152026;28;20505;-76
2023/12/13 04:29:07;;;;;;;11.23;2.28;;;8.20;99.90;;;7.50;100.00;99581.22;4150656;28;20018;-76
2023/12/13 04:31:08;;;;;;;6.50;1.60;;;8.20;99.90;;;7.40;100.00;99578.78;4151601;28;20040;-76
2023/12/13 04:33:09;;;;;;;12.35;2.10;;;8.10;99.90;;;7.39;100.00;99585.00;4150560;28;20030;-76
2023/12/13 04:35:10;;;;;;;11.50;1.60;;;8.10;99.90;;;7.37;100.00;99580.91;4150773;28;20030;-76
2023/12/13 04:37:11;;;;;;;6.18;1.25;;;8.00;99.90;;;7.34;100.00;99586.47;4151774;28;20025;-76
2023/12/13 04:39:12;;;;;;;17.05;2.97;;;8.00;99.90;;;7.34;100.00;99589.94;4150686;28;20061;-76
2023/12/13 04:41:12;;;;;;;8.10;2.53;;;8.00;99.90;;;7.30;100.00;99591.22;4150650;28;20508;-76
2023/12/13 04:43:13;;;;;;;9.15;2.45;;;8.00;99.90;;;7.27;100.00;99588.94;4150667;28;20073;-76
2023/12/13 04:45:14;;;;;;;9.93;1.85;;;7.90;99.90;;;7.21;100.00;99586.97;4151491;28;20025;-76
2023/12/13 04:47:15;;;;;;;11.95;3.83;;;7.80;99.90;;;7.18;100.00;99595.16;4151894;28;20112;-76
2023/12/13 04:49:16;;;;;;;8.52;1.60;;;7.80;99.90;;;7.16;100.00;99594.50;4151958;28;20058;-76
2023/12/13 04:51:17;;;;;;;18.23;2.45;;;7.80;99.90;;;7.16;100.00;99594.50;4150558;28;20036;-76
2023/12/13 04:53:18;;;;;;;12.02;1.75;;;7.80;99.90;;;7.16;100.00;99597.13;4149720;28;20049;-76
2023/12/13 04:55:19;;;;;;;9.25;1.80;;;7.80;99.90;;;7.12;100.00;99594.00;4151870;28;20030;-76
2023/12/13 04:57:20;;;;;;;11.00;1.85;;;7.70;99.90;;;7.13;100.00;99597.44;4154006;28;20033;-76
2023/12/13 04:59:21;;;;;;;12.32;1.95;;;7.80;99.90;;;7.13;100.00;99590.41;4153261;28;20505;-76
2023/12/13 05:01:22;;;;;;;8.07;1.80;;;7.80;99.90;;;7.16;100.00;99597.13;4153038;28;20034;-76
2023/12/13 05:03:23;;;;;;;10.20;2.20;;;7.80;99.90;;;7.16;100.00;99599.75;4154591;28;20018;-76
2023/12/13 05:05:23;;;;;;;9.18;1.67;;;7.80;99.90;;;7.17;100.00;99601.38;4154680;28;20033;-76
2023/12/13 05:07:27;;;;;;;8.52;1.27;;;7.80;99.90;;;7.15;100.00;99600.72;4153256;28;20094;-76
2023/12/13 05:09:28;;;;;;;7.75;1.65;;;7.80;99.90;;;7.09;100.00;99596.13;4154376;28;20022;-76
2023/12/13 05:11:29;;;;;;;9.55;1.40;;;7.80;99.90;;;7.07;100.00;99595.47;4154497;28;20084;-76
2023/12/13 05:13:30;;;;;;;9.95;2.83;;;7.80;99.90;;;7.11;100.00;99599.38;4153899;28;20026;-76
2023/12/13 05:15:30;;;;;;;17.52;2.60;;;7.70;99.90;;;7.10;100.00;99608.25;4154196;28;20034;-76
2023/12/13 05:17:31;;;;;;;20.83;4.68;;;7.80;99.90;;;7.08;100.00;99604.94;4154125;28;20056;-76
2023/12/13 05:19:32;;;;;;;12.95;2.58;;;7.70;99.90;;;7.13;100.00;99610.56;4153271;28;20029;-76
2023/12/13 05:21:33;;;;;;;13.23;2.17;;;7.80;99.90;;;7.18;100.00;99616.94;4154294;28;20394;-76
2023/12/13 05:23:34;;;;;;;8.18;1.88;;;7.80;99.90;;;7.18;100.00;99618.75;4154286;28;20379;-76
2023/12/13 05:25:34;;;;;;;8.02;1.48;;;7.80;99.90;;;7.20;100.00;99616.78;4154167;28;20417;-76
2023/12/13 05:27:35;;;;;;;12.15;1.92;;;7.80;99.90;;;7.17;100.00;99614.47;4154262;28;20083;-76
2023/12/13 05:29:36;;;;;;;9.15;2.05;;;7.80;99.90;;;7.16;100.00;99613.69;4154113;28;20025;-76
2023/12/13 05:31:37;;;;;;;13.82;3.10;;;7.80;99.90;;;7.14;100.00;99617.41;4147707;28;20033;-76
2023/12/13 05:33:38;;;;;;;11.60;2.28;;;7.80;99.90;;;7.16;100.00;99624.16;4148875;28;20021;-76
2023/12/13 05:35:39;;;;;;;8.98;1.45;;;7.80;99.90;;;7.19;100.00;99626.47;4153916;28;20033;-76
2023/12/13 05:37:39;;;;;;;11.57;1.75;;;7.80;99.90;;;7.17;100.00;99625.78;4154108;28;20080;-76
2023/12/13 05:39:40;;;;;;;10.50;1.88;;;7.80;99.90;;;7.14;100.00;99628.75;4152909;28;20034;-76
2023/12/13 05:41:41;;;;;;;10.75;1.92;;;7.80;99.90;;;7.16;100.00;99631.22;4153931;28;20030;-76
2023/12/13 05:43:42;;;;;;;8.00;2.40;;;7.80;99.90;;;7.10;100.00;99624.00;4152578;28;20513;-76
2023/12/13 05:45:43;;;;;;;12.27;2.88;;;7.80;99.90;;;7.06;100.00;99630.53;4153765;28;20544;-76
2023/12/13 05:47:43;;;;;;;9.63;2.30;;;7.80;99.90;;;7.07;100.00;99633.00;4153900;28;20486;-76
2023/12/13 05:49:44;;;;;;;15.77;2.10;;;7.80;99.90;;;7.09;100.00;99635.44;4152678;28;20371;-76
2023/12/13 05:51:45;;;;;;;9.63;2.50;;;7.70;99.90;;;7.09;100.00;99627.59;4149059;28;20382;-76
2023/12/13 05:53:46;;;;;;;7.18;1.60;;;7.70;99.90;;;7.04;100.00;99635.94;4152694;28;20393;-76
2023/12/13 05:55:47;;;;;;;13.05;2.17;;;7.70;99.90;;;7.09;100.00;99630.19;4153789;28;20026;-76
2023/12/13 05:57:48;;;;;;;11.32;1.92;;;7.70;99.90;;;7.04;100.00;99642.97;4153876;28;20025;-76
2023/12/13 05:59:49;;;;;;;7.32;1.42;;;7.70;99.90;;;7.00;100.00;99636.41;4153471;28;20044;-76
2023/12/13 06:01:50;;;;;;;14.02;1.70;;;7.70;99.90;;;6.97;100.00;99624.44;4153815;28;20034;-76
2023/12/13 06:03:50;;;;;;;15.45;1.70;;;7.60;99.90;;;6.93;100.00;99638.84;4152124;28;20026;-76
2023/12/13 06:05:51;;;;;;;13.85;3.40;;;7.60;99.90;;;6.89;100.00;99641.97;4153220;28;20021;-78
2023/12/13 06:07:52;;;;;;;8.75;1.50;;;7.60;99.90;;;6.86;100.00;99642.28;4148286;28;20481;-78
2023/12/13 06:09:53;;;;;;;9.40;2.08;;;7.50;99.90;;;6.84;100.00;99646.88;4153198;28;20068;-78
2023/12/13 06:11:54;;;;;;;6.38;1.30;;;7.50;99.90;;;6.79;100.00;99641.25;4152208;28;20463;-78
2023/12/13 06:13:55;;;;;;;7.90;1.63;;;7.50;99.90;;;6.82;100.00;99654.03;4152508;28;20026;-78
2023/12/13 06:15:56;;;;;;;13.20;1.05;;;7.50;99.90;;;6.80;100.00;99656.84;4152957;28;20034;-78
2023/12/13 06:17:57;;;;;;;8.52;1.20;;;7.50;99.90;;;6.80;100.00;99661.25;4153544;28;20030;-78
2023/12/13 06:19:58;;;;;;;10.35;1.58;;;7.50;99.90;;;6.82;100.00;99665.34;4153334;28;20400;-78
2023/12/13 06:21:59;;;;;;;14.00;1.80;;;7.50;99.90;;;6.80;100.00;99671.75;4153413;28;20030;-76
2023/12/13 06:24:01;;;;;;;8.93;1.55;;;7.50;99.90;;;6.75;100.00;99666.16;4152064;28;20030;-76
2023/12/13 06:26:03;;;;;;;8.82;2.00;;;7.50;99.90;;;6.75;100.00;99666.97;4152344;28;20026;-78
2023/12/13 06:28:04;;;;;;;7.72;1.50;;;7.50;99.90;;;6.77;100.00;99672.06;4152144;28;20040;-76
2023/12/13 06:30:06;;;;;;;7.25;1.50;;;7.50;99.90;;;6.70;100.00;99666.63;4152990;28;20049;-76
2023/12/13 06:32:07;;;;;;;15.65;2.78;;;7.40;99.90;;;6.78;100.00;99676.31;4153061;28;20037;-76
2023/12/13 06:34:08;;;;;;;6.78;1.58;;;7.50;99.90;;;6.80;100.00;99676.97;4151948;28;20525;-76
2023/12/13 06:36:09;;;;;;;12.95;2.08;;;7.50;99.90;;;6.77;100.00;99685.16;4153179;28;20486;-76
2023/12/13 06:38:10;;;;;;;7.10;1.80;;;7.50;99.90;;;6.77;100.00;99687.78;4152152;28;20393;-76
2023/12/13 06:40:14;;;;;;;10.15;2.47;;;7.50;99.90;;;6.72;100.00;99692.69;4153120;28;20042;-76
2023/12/13 06:42:15;;;;;;;8.38;2.22;;;7.40;99.90;;;6.77;100.00;99703.50;4153088;28;20026;-76
2023/12/13 06:44:16;;;;;;;4.90;1.40;;;7.40;99.90;;;6.77;100.00;99691.22;4153029;28;20033;-76
2023/12/13 06:46:17;;;;;;;10.75;1.50;;;7.50;99.90;;;6.77;100.00;99700.88;4153021;28;20029;-76
2023/12/13 06:48:17;;;;;;;13.68;2.60;;;7.40;99.90;;;6.80;100.00;99708.44;4152837;28;20022;-76
2023/12/13 06:50:19;;;;;;;9.13;2.13;;;7.50;99.90;;;6.76;100.00;99707.09;4151856;28;20026;-76
2023/12/13 06:52:19;;;;;;;7.57;1.92;;;7.40;99.90;;;6.78;100.00;99715.63;4152425;28;20468;-76
2023/12/13 06:54:20;;;;;;;12.63;2.25;;;7.40;99.90;;;6.85;100.00;99722.72;4151771;28;20037;-76
2023/12/13 06:56:21;;;;;;;9.90;2.30;;;7.50;99.90;;;6.85;100.00;99725.31;4152906;28;20034;-76
2023/12/13 06:58:22;;;;;;;13.00;2.53;;;7.50;99.90;;;6.90;100.00;99724.88;4152921;28;20034;-76
2023/12/13 07:00:27;;;;;;;10.27;2.95;;;7.50;99.90;;;6.86;100.00;99726.16;4150333;28;20532;-76
2023/12/13 07:02:27;;;;;;;10.82;2.13;;;7.60;99.90;;;6.87;100.00;99731.22;4146425;28;20095;-76
2023/12/13 07:04:28;;;;;;;5.32;1.80;;;7.50;99.90;;;6.87;100.00;99743.53;4151649;28;20022;-76
2023/12/13 07:06:30;;;;;;;10.52;2.10;;;7.50;99.90;;;6.81;100.00;99744.97;4139850;28;20037;-76
2023/12/13 07:08:30;;;;;;;8.57;1.70;;;7.50;99.90;;;6.79;100.00;99751.34;4152794;28;20026;-76
2023/12/13 07:10:31;;;;;;;12.55;2.63;;;7.50;99.90;;;6.85;100.00;99762.03;4152691;28;20478;-76
2023/12/13 07:12:32;;;;;;;13.75;2.58;;;7.40;99.90;;;6.82;100.00;99758.88;4152554;28;20022;-76
2023/12/13 07:14:35;;;;;;;7.85;2.97;;;7.50;99.90;;;6.88;100.00;99758.25;4151091;28;20037;-76
2023/12/13 07:16:35;;;;;;;12.73;1.88;;;7.50;99.90;;;6.94;100.00;99757.63;4150743;28;20052;-76
2023/12/13 07:18:36;;;;;;;11.13;2.05;;;7.50;99.90;;;6.90;100.00;99758.94;4152012;28;20026;-76
2023/12/13 07:20:37;;;;;;;10.63;2.15;;;7.60;99.90;;;6.87;100.00;99767.13;4152258;28;20030;-76
2023/12/13 07:22:39;;;;;;;18.15;3.10;;;7.50;99.90;;;6.85;100.00;99771.69;4152387;28;20037;-76
2023/12/13 07:24:39;;;;;;;10.75;2.67;;;7.50;99.90;;;6.85;100.00;99776.94;4152715;28;20044;-76
2023/12/13 07:26:40;;;;;;;10.68;2.80;;;7.50;99.90;;;6.91;100.00;99778.94;4152530;28;20030;-76
2023/12/13 07:28:41;;;;;;;19.38;3.45;;;7.50;99.90;;;6.90;100.00;99777.31;4152479;28;20026;-76
2023/12/13 07:30:42;;;;;;;12.65;2.28;;;7.60;99.90;;;6.98;100.00;99787.81;4152132;28;20101;-76
2023/12/13 07:32:46;;;;;;;7.68;1.85;;;7.60;99.90;;;7.03;100.00;99785.53;4151061;28;20429;-76
2023/12/13 07:34:48;;;;;;;7.43;2.10;;;7.60;99.90;;;7.05;100.00;99794.06;4152582;28;20030;-76
2023/12/13 07:36:49;;;;;;;6.15;2.28;;;7.60;99.90;;;7.03;100.00;99796.03;4167409;28;20026;-76
2023/12/13 07:38:50;;;;;;;14.93;2.63;;;7.60;99.90;;;7.02;100.00;99789.97;4151007;28;20409;-76
2023/12/13 07:40:51;;;;;;;8.50;1.88;;;7.60;99.90;;;6.99;100.00;99794.72;4152457;28;20037;-76
2023/12/13 07:42:52;;;;;;;12.35;2.53;;;7.60;99.90;;;7.02;100.00;99794.38;4150999;28;20032;-76
2023/12/13 07:44:52;;;;;;;10.25;1.65;;;7.60;99.90;;;6.99;100.00;99798.13;4150869;28;20539;-76
2023/12/13 07:46:54;;;;;;;9.32;2.50;;;7.60;99.90;;;6.90;100.00;99788.59;4167262;28;20034;-76
2023/12/13 07:48:57;;;;;;;8.85;1.48;;;7.60;99.90;;;6.91;100.00;99798.09;4152352;28;20033;-76
2023/12/13 07:50:59;;;;;;;10.68;1.55;;;7.60;99.90;;;6.97;100.00;99804.50;4151172;28;20080;-76
2023/12/13 07:53:00;;;;;;;14.20;1.88;;;7.60;99.90;;;6.86;100.00;99797.75;4151620;28;20053;-76
2023/12/13 07:55:02;;;;;;;4.70;1.40;;;7.50;99.90;;;6.88;100.00;99811.53;4150951;28;20026;-76
2023/12/13 07:57:03;;;;;;;9.15;1.67;;;7.50;99.90;;;6.89;100.00;99818.41;4152276;28;20022;-76
2023/12/13 07:59:04;;;;;;;9.20;1.60;;;7.50;99.90;;;6.87;100.00;99824.78;4151142;28;20030;-76
2023/12/13 08:01:06;;;;;;;7.32;1.40;;;7.50;99.90;;;6.94;100.00;99821.38;4150867;28;20057;-76
2023/12/13 08:03:07;;;;;;;9.75;2.15;;;7.50;99.90;;;6.92;100.00;99825.16;4152050;28;20033;-76
2023/12/13 08:05:08;;;;;;;7.05;1.67;;;7.50;99.90;;;6.91;100.00;99824.31;4152234;28;20026;-76
2023/12/13 08:07:09;;;;;;;5.20;1.58;;;7.60;99.90;;;7.00;100.00;99833.03;4150925;28;20494;-76
2023/12/13 08:09:10;;;;;;;8.48;1.35;;;7.60;99.90;;;7.05;100.00;99836.00;4153696;28;20025;-76
2023/12/13 08:11:11;;;;;;;7.88;1.55;;;7.70;99.90;;;7.06;100.00;99840.28;4165059;28;20040;-76
2023/12/13 08:13:12;;;;;;;9.65;2.55;;;7.70;99.90;;;7.04;100.00;99848.34;4152168;28;20084;-76
2023/12/13 08:15:13;;;;;;;7.18;1.50;;;7.70;99.90;;;7.02;100.00;99850.25;4151952;28;20121;-75
2023/12/13 08:17:14;;;;;;;5.65;1.33;;;7.70;99.90;;;7.07;100.00;99857.69;4143702;28;20058;-76
2023/12/13 08:19:15;;;;;;;6.90;1.48;;;7.70;99.90;;;7.04;100.00;99863.25;4150797;28;20045;-76
2023/12/13 08:21:15;;;;;;;5.85;1.20;;;7.60;99.90;;;6.99;100.00;99855.03;4150877;28;20084;-76
2023/12/13 08:23:16;;;;;;;7.25;1.50;;;7.60;99.90;;;7.03;100.00;99858.97;4150641;28;20033;-75
2023/12/13 08:25:17;;;;;;;10.90;1.48;;;7.70;99.90;;;7.03;100.00;99866.81;4151994;28;20034;-75
2023/12/13 08:27:18;;;;;;;8.75;1.73;;;7.70;99.90;;;6.99;100.00;99876.00;4134401;28;20054;-77
2023/12/13 08:29:19;;;;;;;6.90;1.33;;;7.60;99.90;;;7.01;100.00;99879.28;4142445;28;20543;-74
2023/12/13 08:31:19;;;;;;;7.30;1.83;;;7.70;99.90;;;7.04;100.00;99873.72;4154332;28;20390;-77
2023/12/13 08:33:20;;;;;;;12.10;2.60;;;7.70;99.90;;;7.08;100.00;99882.91;4153811;28;20037;-77